Jackson Township, Pennsylvania
Current Conditions -  °F | °C
As of 3:54 AM on Wednesday 22 Oct 2014 (Local Time) from KAVP Reporting Station
Haze Haze  
Wind Chill: 52°   Ceiling: 2200
Heat Index: 52°   Visibility: 6mi
Dew Point: 50°   Wind: 0mph
Humidity: 93%   Direction: NA
Pressure: 29.93"   Gusts: NA
Location:  41.2938°N, 75.9861°W
Report Text: KAVP 220754Z AUTO 00000KT 6SM BR BKN022 OVC036 11/10 A2993 RMK AO2 RAE52 SLP134 P0002 T01110100
Loading
Personal Weather Stations






























Interactive Weather Map
Tropical Storm Tracking
New forecast layout! Learn more

10-Day Weather Forecast

Advertisements
Track Severe Weather on mobile